Главная страница
METAR-TAF:

METAR-TAF

Аэропорты :

Миккели, Финляндия

широта: 61-44N, долгота: 027-18E, высота над уровнем моря: 138 м

Текущие метеонаблюдения

Эта сводка был подготовлена 31 минут назад, в 01:50 UTC
Ветер 2 Узел переменных направлений
Температура 9°C
Влажность 93%
Давление 1013 hPa
Видимость 10 км и более
небольшая облачность на высоте 900 фута

METAR: EFMI 160150Z AUTO VRB02KT 9999 FEW009 09/08 Q1013

Время: 05:21 (02:21 UTC)


TAF: отсутствует

Метеонаблюдения и прогнозы для более 4000 аэропортов (сводки METAR и TAF).

Имеющиеся станции представлены на карте желтыми и красными точками.

Чтобы увидеть название станции, наведите на нее мышь.

Затем щелкните, чтобы увидеть метеонаблюдения и метеопрогнозы.

Управление картой: чтобы увеличить масштаб, щелкните зеленые кнопки с черным крестиком; чтобы уменьшить масштаб, щелкните зеленую кнопку с тире; для просмотра соседних карт щелкайте зеленые стрелки.


METAR-TAF: